sensor_id;sensor_type;location;lat;lon;timestamp;temperature;humidity
1351;DHT22;669;50.206;9.998;2023-04-24T00:00:14;10.20;99.90
1351;DHT22;669;50.206;9.998;2023-04-24T00:02:42;10.20;99.90
1351;DHT22;669;50.206;9.998;2023-04-24T00:05:13;10.20;99.90
1351;DHT22;669;50.206;9.998;2023-04-24T00:07:44;10.20;99.90
1351;DHT22;669;50.206;9.998;2023-04-24T00:10:12;10.20;99.90
1351;DHT22;669;50.206;9.998;2023-04-24T00:12:40;10.30;99.90
1351;DHT22;669;50.206;9.998;2023-04-24T00:15:09;10.30;99.90
1351;DHT22;669;50.206;9.998;2023-04-24T00:17:37;10.30;99.90
1351;DHT22;669;50.206;9.998;2023-04-24T00:20:06;10.30;99.90
1351;DHT22;669;50.206;9.998;2023-04-24T00:22:34;10.20;99.90
1351;DHT22;669;50.206;9.998;2023-04-24T00:25:04;10.20;99.90
1351;DHT22;669;50.206;9.998;2023-04-24T00:27:32;10.20;99.90
1351;DHT22;669;50.206;9.998;2023-04-24T00:30:02;10.20;99.90
1351;DHT22;669;50.206;9.998;2023-04-24T00:32:30;10.20;99.90
1351;DHT22;669;50.206;9.998;2023-04-24T00:34:58;10.20;99.90
1351;DHT22;669;50.206;9.998;2023-04-24T00:37:26;10.10;99.90
1351;DHT22;669;50.206;9.998;2023-04-24T00:39:53;10.10;99.90
1351;DHT22;669;50.206;9.998;2023-04-24T00:42:23;10.10;99.90
1351;DHT22;669;50.206;9.998;2023-04-24T00:44:51;10.10;99.90
1351;DHT22;669;50.206;9.998;2023-04-24T00:47:19;10.10;99.90
1351;DHT22;669;50.206;9.998;2023-04-24T00:49:48;10.10;99.90
1351;DHT22;669;50.206;9.998;2023-04-24T00:52:16;10.00;99.90
1351;DHT22;669;50.206;9.998;2023-04-24T00:54:45;10.00;99.90
1351;DHT22;669;50.206;9.998;2023-04-24T00:57:13;10.00;99.90
1351;DHT22;669;50.206;9.998;2023-04-24T00:59:43;10.00;99.90
1351;DHT22;669;50.206;9.998;2023-04-24T01:02:11;10.00;99.90
1351;DHT22;669;50.206;9.998;2023-04-24T01:04:40;9.90;99.90
1351;DHT22;669;50.206;9.998;2023-04-24T01:07:08;9.90;99.90
1351;DHT22;669;50.206;9.998;2023-04-24T01:09:40;9.90;99.90
1351;DHT22;669;50.206;9.998;2023-04-24T01:12:08;9.90;99.90
1351;DHT22;669;50.206;9.998;2023-04-24T01:14:37;9.90;99.90
1351;DHT22;669;50.206;9.998;2023-04-24T01:17:06;9.80;99.90
1351;DHT22;669;50.206;9.998;2023-04-24T01:19:35;9.80;99.90
1351;DHT22;669;50.206;9.998;2023-04-24T01:22:09;9.80;99.90
1351;DHT22;669;50.206;9.998;2023-04-24T01:24:38;9.80;99.90
1351;DHT22;669;50.206;9.998;2023-04-24T01:27:06;9.80;99.90
1351;DHT22;669;50.206;9.998;2023-04-24T01:29:34;9.80;99.90
1351;DHT22;669;50.206;9.998;2023-04-24T01:32:03;9.80;99.90
1351;DHT22;669;50.206;9.998;2023-04-24T01:34:31;9.80;99.90
1351;DHT22;669;50.206;9.998;2023-04-24T01:36:59;9.90;99.90
1351;DHT22;669;50.206;9.998;2023-04-24T01:39:29;9.90;99.90
1351;DHT22;669;50.206;9.998;2023-04-24T01:41:56;9.90;99.90
1351;DHT22;669;50.206;9.998;2023-04-24T01:44:24;9.90;99.90
1351;DHT22;669;50.206;9.998;2023-04-24T01:46:52;9.90;99.90
1351;DHT22;669;50.206;9.998;2023-04-24T01:49:22;9.90;99.90
1351;DHT22;669;50.206;9.998;2023-04-24T01:51:50;9.90;99.90
1351;DHT22;669;50.206;9.998;2023-04-24T01:54:17;9.90;99.90
1351;DHT22;669;50.206;9.998;2023-04-24T01:56:47;9.90;99.90
1351;DHT22;669;50.206;9.998;2023-04-24T01:59:15;9.90;99.90
1351;DHT22;669;50.206;9.998;2023-04-24T02:01:44;9.90;99.90
1351;DHT22;669;50.206;9.998;2023-04-24T02:04:12;9.80;99.90
1351;DHT22;669;50.206;9.998;2023-04-24T02:06:42;9.80;99.90
1351;DHT22;669;50.206;9.998;2023-04-24T02:09:10;9.80;99.90
1351;DHT22;669;50.206;9.998;2023-04-24T02:11:38;9.90;99.90
1351;DHT22;669;50.206;9.998;2023-04-24T02:14:07;9.90;99.90
1351;DHT22;669;50.206;9.998;2023-04-24T02:16:35;9.90;99.60
1351;DHT22;669;50.206;9.998;2023-04-24T02:19:03;9.90;99.70
1351;DHT22;669;50.206;9.998;2023-04-24T02:21:31;9.90;99.60
1351;DHT22;669;50.206;9.998;2023-04-24T02:23:59;9.90;99.70
1351;DHT22;669;50.206;9.998;2023-04-24T02:26:27;9.80;99.60
1351;DHT22;669;50.206;9.998;2023-04-24T02:28:55;9.80;99.60
1351;DHT22;669;50.206;9.998;2023-04-24T02:31:24;9.80;99.70
1351;DHT22;669;50.206;9.998;2023-04-24T02:33:52;9.80;99.60
1351;DHT22;669;50.206;9.998;2023-04-24T02:36:20;9.80;99.60
1351;DHT22;669;50.206;9.998;2023-04-24T02:38:48;9.80;99.30
1351;DHT22;669;50.206;9.998;2023-04-24T02:41:16;9.80;99.20
1351;DHT22;669;50.206;9.998;2023-04-24T02:43:44;9.80;99.10
1351;DHT22;669;50.206;9.998;2023-04-24T02:46:12;9.80;99.00
1351;DHT22;669;50.206;9.998;2023-04-24T02:48:41;9.80;98.60
1351;DHT22;669;50.206;9.998;2023-04-24T02:51:09;9.80;99.00
1351;DHT22;669;50.206;9.998;2023-04-24T02:53:37;9.80;98.90
1351;DHT22;669;50.206;9.998;2023-04-24T02:56:05;9.80;99.00
1351;DHT22;669;50.206;9.998;2023-04-24T02:58:32;9.80;98.70
1351;DHT22;669;50.206;9.998;2023-04-24T03:01:00;9.80;98.60
1351;DHT22;669;50.206;9.998;2023-04-24T03:03:28;9.70;98.70
1351;DHT22;669;50.206;9.998;2023-04-24T03:05:58;9.70;98.80
1351;DHT22;669;50.206;9.998;2023-04-24T03:08:26;9.70;98.90
1351;DHT22;669;50.206;9.998;2023-04-24T03:10:54;9.70;99.10
1351;DHT22;669;50.206;9.998;2023-04-24T03:13:22;9.70;99.20
1351;DHT22;669;50.206;9.998;2023-04-24T03:15:50;9.70;99.20
1351;DHT22;669;50.206;9.998;2023-04-24T03:18:19;9.70;99.10
1351;DHT22;669;50.206;9.998;2023-04-24T03:20:47;9.60;99.00
1351;DHT22;669;50.206;9.998;2023-04-24T03:23:16;9.60;99.00
1351;DHT22;669;50.206;9.998;2023-04-24T03:25:44;9.60;99.20
1351;DHT22;669;50.206;9.998;2023-04-24T03:28:12;9.60;99.10
1351;DHT22;669;50.206;9.998;2023-04-24T03:30:40;9.60;98.90
1351;DHT22;669;50.206;9.998;2023-04-24T03:33:08;9.60;98.80
1351;DHT22;669;50.206;9.998;2023-04-24T03:35:36;9.60;98.70
1351;DHT22;669;50.206;9.998;2023-04-24T03:38:04;9.50;98.90
1351;DHT22;669;50.206;9.998;2023-04-24T03:40:33;9.50;98.80
1351;DHT22;669;50.206;9.998;2023-04-24T03:43:02;9.40;98.60
1351;DHT22;669;50.206;9.998;2023-04-24T03:45:30;9.40;98.80
1351;DHT22;669;50.206;9.998;2023-04-24T03:47:57;9.40;98.90
1351;DHT22;669;50.206;9.998;2023-04-24T03:50:26;9.30;98.60
1351;DHT22;669;50.206;9.998;2023-04-24T03:52:55;9.30;98.80
1351;DHT22;669;50.206;9.998;2023-04-24T03:55:23;9.20;98.90
1351;DHT22;669;50.206;9.998;2023-04-24T03:57:52;9.20;99.00
1351;DHT22;669;50.206;9.998;2023-04-24T04:00:20;9.10;99.00
1351;DHT22;669;50.206;9.998;2023-04-24T04:02:48;9.10;99.30
1351;DHT22;669;50.206;9.998;2023-04-24T04:05:16;9.10;99.30
1351;DHT22;669;50.206;9.998;2023-04-24T04:07:44;9.10;99.30
1351;DHT22;669;50.206;9.998;2023-04-24T04:10:12;9.10;99.30
1351;DHT22;669;50.206;9.998;2023-04-24T04:12:40;9.00;99.70
1351;DHT22;669;50.206;9.998;2023-04-24T04:15:10;9.10;99.90
1351;DHT22;669;50.206;9.998;2023-04-24T04:17:38;9.00;99.90
1351;DHT22;669;50.206;9.998;2023-04-24T04:20:07;9.10;99.90
1351;DHT22;669;50.206;9.998;2023-04-24T04:22:36;9.10;99.90
1351;DHT22;669;50.206;9.998;2023-04-24T04:25:04;9.20;99.90
1351;DHT22;669;50.206;9.998;2023-04-24T04:27:33;9.20;99.90
1351;DHT22;669;50.206;9.998;2023-04-24T04:30:01;9.20;99.90
1351;DHT22;669;50.206;9.998;2023-04-24T04:32:32;9.20;99.90
1351;DHT22;669;50.206;9.998;2023-04-24T04:35:01;9.30;99.90
1351;DHT22;669;50.206;9.998;2023-04-24T04:37:30;9.30;99.90
1351;DHT22;669;50.206;9.998;2023-04-24T04:39:58;9.30;99.90
1351;DHT22;669;50.206;9.998;2023-04-24T04:42:26;9.30;99.90
1351;DHT22;669;50.206;9.998;2023-04-24T04:44:54;9.40;99.90
1351;DHT22;669;50.206;9.998;2023-04-24T04:47:24;9.40;99.90
1351;DHT22;669;50.206;9.998;2023-04-24T04:49:54;9.40;99.90
1351;DHT22;669;50.206;9.998;2023-04-24T04:52:22;9.40;99.90
1351;DHT22;669;50.206;9.998;2023-04-24T04:54:52;9.40;99.90
1351;DHT22;669;50.206;9.998;2023-04-24T04:57:20;9.40;99.40
1351;DHT22;669;50.206;9.998;2023-04-24T04:59:48;9.50;99.50
1351;DHT22;669;50.206;9.998;2023-04-24T05:02:16;9.50;99.60
1351;DHT22;669;50.206;9.998;2023-04-24T05:04:44;9.50;99.50
1351;DHT22;669;50.206;9.998;2023-04-24T05:07:14;9.60;99.60
1351;DHT22;669;50.206;9.998;2023-04-24T05:09:42;9.60;99.50
1351;DHT22;669;50.206;9.998;2023-04-24T05:12:11;9.60;99.50
1351;DHT22;669;50.206;9.998;2023-04-24T05:14:39;9.70;99.70
1351;DHT22;669;50.206;9.998;2023-04-24T05:17:07;9.70;99.60
1351;DHT22;669;50.206;9.998;2023-04-24T05:19:35;9.70;98.50
1351;DHT22;669;50.206;9.998;2023-04-24T05:22:04;9.70;98.50
1351;DHT22;669;50.206;9.998;2023-04-24T05:24:34;9.70;97.70
1351;DHT22;669;50.206;9.998;2023-04-24T05:27:03;9.80;97.60
1351;DHT22;669;50.206;9.998;2023-04-24T05:29:32;9.70;97.70
1351;DHT22;669;50.206;9.998;2023-04-24T05:32:00;9.80;97.70
1351;DHT22;669;50.206;9.998;2023-04-24T05:34:28;9.70;97.30
1351;DHT22;669;50.206;9.998;2023-04-24T05:36:56;9.70;96.50
1351;DHT22;669;50.206;9.998;2023-04-24T05:39:24;9.70;96.30
1351;DHT22;669;50.206;9.998;2023-04-24T05:41:53;9.70;95.30
1351;DHT22;669;50.206;9.998;2023-04-24T05:44:24;9.70;94.50
1351;DHT22;669;50.206;9.998;2023-04-24T05:46:52;9.70;94.50
1351;DHT22;669;50.206;9.998;2023-04-24T05:49:22;9.70;94.50
1351;DHT22;669;50.206;9.998;2023-04-24T05:51:50;9.80;93.30
1351;DHT22;669;50.206;9.998;2023-04-24T05:54:17;10.00;91.50
1351;DHT22;669;50.206;9.998;2023-04-24T05:56:45;10.20;90.80
1351;DHT22;669;50.206;9.998;2023-04-24T05:59:14;10.20;91.00
1351;DHT22;669;50.206;9.998;2023-04-24T06:01:42;10.20;91.30
1351;DHT22;669;50.206;9.998;2023-04-24T06:04:12;10.10;90.20
1351;DHT22;669;50.206;9.998;2023-04-24T06:06:41;10.00;89.30
1351;DHT22;669;50.206;9.998;2023-04-24T06:09:09;9.90;89.70
1351;DHT22;669;50.206;9.998;2023-04-24T06:11:38;10.10;89.50
1351;DHT22;669;50.206;9.998;2023-04-24T06:14:06;10.40;88.50
1351;DHT22;669;50.206;9.998;2023-04-24T06:16:35;10.60;87.10
1351;DHT22;669;50.206;9.998;2023-04-24T06:19:03;10.70;84.30
1351;DHT22;669;50.206;9.998;2023-04-24T06:21:31;10.70;83.40
1351;DHT22;669;50.206;9.998;2023-04-24T06:23:59;11.00;83.20
1351;DHT22;669;50.206;9.998;2023-04-24T06:26:27;11.00;81.80
1351;DHT22;669;50.206;9.998;2023-04-24T06:28:55;11.30;81.60
1351;DHT22;669;50.206;9.998;2023-04-24T06:31:25;11.60;78.60
1351;DHT22;669;50.206;9.998;2023-04-24T06:33:54;11.80;75.80
1351;DHT22;669;50.206;9.998;2023-04-24T06:36:22;12.20;74.60
1351;DHT22;669;50.206;9.998;2023-04-24T06:38:50;12.50;72.30
1351;DHT22;669;50.206;9.998;2023-04-24T06:41:18;12.90;71.00
1351;DHT22;669;50.206;9.998;2023-04-24T06:43:46;13.20;66.30
1351;DHT22;669;50.206;9.998;2023-04-24T06:46:13;13.40;67.60
1351;DHT22;669;50.206;9.998;2023-04-24T06:48:41;13.60;66.70
1351;DHT22;669;50.206;9.998;2023-04-24T06:51:10;13.70;65.00
1351;DHT22;669;50.206;9.998;2023-04-24T06:53:38;13.70;64.70
1351;DHT22;669;50.206;9.998;2023-04-24T06:56:06;13.90;64.80
1351;DHT22;669;50.206;9.998;2023-04-24T06:58:34;14.00;63.40
1351;DHT22;669;50.206;9.998;2023-04-24T07:01:02;13.80;61.60
1351;DHT22;669;50.206;9.998;2023-04-24T07:03:30;13.40;62.20
1351;DHT22;669;50.206;9.998;2023-04-24T07:05:58;12.90;65.50
1351;DHT22;669;50.206;9.998;2023-04-24T07:08:28;12.60;66.90
1351;DHT22;669;50.206;9.998;2023-04-24T07:10:57;12.70;63.10
1351;DHT22;669;50.206;9.998;2023-04-24T07:13:25;13.00;58.30
1351;DHT22;669;50.206;9.998;2023-04-24T07:15:53;13.20;57.70
1351;DHT22;669;50.206;9.998;2023-04-24T07:18:23;12.90;57.40
1351;DHT22;669;50.206;9.998;2023-04-24T07:20:50;13.10;55.20
1351;DHT22;669;50.206;9.998;2023-04-24T07:23:19;13.30;55.40
1351;DHT22;669;50.206;9.998;2023-04-24T07:25:49;13.60;53.50
1351;DHT22;669;50.206;9.998;2023-04-24T07:28:17;13.60;55.20
1351;DHT22;669;50.206;9.998;2023-04-24T07:30:45;13.80;52.50
1351;DHT22;669;50.206;9.998;2023-04-24T07:33:13;13.70;52.90
1351;DHT22;669;50.206;9.998;2023-04-24T07:35:41;13.60;52.40
1351;DHT22;669;50.206;9.998;2023-04-24T07:38:09;13.50;48.80
1351;DHT22;669;50.206;9.998;2023-04-24T07:40:37;13.30;52.10
1351;DHT22;669;50.206;9.998;2023-04-24T07:43:06;13.50;50.00
1351;DHT22;669;50.206;9.998;2023-04-24T07:45:34;13.80;51.00
1351;DHT22;669;50.206;9.998;2023-04-24T07:48:04;14.20;47.40
1351;DHT22;669;50.206;9.998;2023-04-24T07:50:32;13.90;45.10
1351;DHT22;669;50.206;9.998;2023-04-24T07:53:01;13.70;47.00
1351;DHT22;669;50.206;9.998;2023-04-24T07:55:29;13.30;47.60
1351;DHT22;669;50.206;9.998;2023-04-24T07:57:57;13.00;48.90
1351;DHT22;669;50.206;9.998;2023-04-24T08:00:26;12.80;49.20
1351;DHT22;669;50.206;9.998;2023-04-24T08:02:54;13.20;45.20
1351;DHT22;669;50.206;9.998;2023-04-24T08:05:22;13.20;44.60
1351;DHT22;669;50.206;9.998;2023-04-24T08:07:52;12.90;44.80
1351;DHT22;669;50.206;9.998;2023-04-24T08:10:21;12.50;45.20
1351;DHT22;669;50.206;9.998;2023-04-24T08:12:49;12.20;47.70
1351;DHT22;669;50.206;9.998;2023-04-24T08:15:17;11.90;48.20
1351;DHT22;669;50.206;9.998;2023-04-24T08:17:47;11.70;47.50
1351;DHT22;669;50.206;9.998;2023-04-24T08:20:14;12.00;50.00
1351;DHT22;669;50.206;9.998;2023-04-24T08:22:43;12.80;48.10
1351;DHT22;669;50.206;9.998;2023-04-24T08:25:11;13.70;44.30
1351;DHT22;669;50.206;9.998;2023-04-24T08:27:39;14.40;42.40
1351;DHT22;669;50.206;9.998;2023-04-24T08:30:07;14.50;39.00
1351;DHT22;669;50.206;9.998;2023-04-24T08:32:36;14.60;38.60
1351;DHT22;669;50.206;9.998;2023-04-24T08:35:06;14.70;39.30
1351;DHT22;669;50.206;9.998;2023-04-24T08:37:36;14.10;40.40
1351;DHT22;669;50.206;9.998;2023-04-24T08:40:09;13.80;40.60
1351;DHT22;669;50.206;9.998;2023-04-24T08:42:39;14.30;41.00
1351;DHT22;669;50.206;9.998;2023-04-24T08:45:11;14.50;41.00
1351;DHT22;669;50.206;9.998;2023-04-24T08:47:40;14.90;40.60
1351;DHT22;669;50.206;9.998;2023-04-24T08:50:10;14.80;37.60
1351;DHT22;669;50.206;9.998;2023-04-24T08:52:39;14.30;39.10
1351;DHT22;669;50.206;9.998;2023-04-24T08:55:07;14.30;40.00
1351;DHT22;669;50.206;9.998;2023-04-24T08:57:35;15.00;42.00
1351;DHT22;669;50.206;9.998;2023-04-24T09:00:07;15.20;37.50
1351;DHT22;669;50.206;9.998;2023-04-24T09:02:41;15.00;37.80
1351;DHT22;669;50.206;9.998;2023-04-24T09:05:12;14.90;38.90
1351;DHT22;669;50.206;9.998;2023-04-24T09:07:44;14.70;37.60
1351;DHT22;669;50.206;9.998;2023-04-24T09:10:13;14.10;40.50
1351;DHT22;669;50.206;9.998;2023-04-24T09:12:41;13.80;41.60
1351;DHT22;669;50.206;9.998;2023-04-24T09:15:10;13.50;42.20
1351;DHT22;669;50.206;9.998;2023-04-24T09:17:38;13.40;44.10
1351;DHT22;669;50.206;9.998;2023-04-24T09:20:08;13.30;44.00
1351;DHT22;669;50.206;9.998;2023-04-24T09:22:37;13.20;43.20
1351;DHT22;669;50.206;9.998;2023-04-24T09:25:07;13.10;42.80
1351;DHT22;669;50.206;9.998;2023-04-24T09:27:36;13.10;41.40
1351;DHT22;669;50.206;9.998;2023-04-24T09:30:04;13.10;43.30
1351;DHT22;669;50.206;9.998;2023-04-24T09:32:34;13.10;42.80
1351;DHT22;669;50.206;9.998;2023-04-24T09:35:06;13.00;42.60
1351;DHT22;669;50.206;9.998;2023-04-24T09:37:40;13.10;43.80
1351;DHT22;669;50.206;9.998;2023-04-24T09:40:10;13.30;45.60
1351;DHT22;669;50.206;9.998;2023-04-24T09:42:39;13.40;43.10
1351;DHT22;669;50.206;9.998;2023-04-24T09:45:10;13.40;44.10
1351;DHT22;669;50.206;9.998;2023-04-24T09:47:42;13.60;44.70
1351;DHT22;669;50.206;9.998;2023-04-24T09:50:13;13.50;42.70
1351;DHT22;669;50.206;9.998;2023-04-24T09:52:45;13.30;40.00
1351;DHT22;669;50.206;9.998;2023-04-24T09:55:18;13.00;42.00
1351;DHT22;669;50.206;9.998;2023-04-24T09:57:48;12.80;42.70
1351;DHT22;669;50.206;9.998;2023-04-24T10:00:22;12.70;42.80
1351;DHT22;669;50.206;9.998;2023-04-24T10:02:50;12.60;43.30
1351;DHT22;669;50.206;9.998;2023-04-24T10:05:23;12.70;45.70
1351;DHT22;669;50.206;9.998;2023-04-24T10:07:56;12.50;44.40
1351;DHT22;669;50.206;9.998;2023-04-24T10:10:24;12.40;43.10
1351;DHT22;669;50.206;9.998;2023-04-24T10:12:53;12.40;44.40
1351;DHT22;669;50.206;9.998;2023-04-24T10:15:22;12.30;45.30
1351;DHT22;669;50.206;9.998;2023-04-24T10:17:51;12.20;45.70
1351;DHT22;669;50.206;9.998;2023-04-24T10:20:21;12.10;46.00
1351;DHT22;669;50.206;9.998;2023-04-24T10:22:50;12.00;46.60
1351;DHT22;669;50.206;9.998;2023-04-24T10:25:21;12.00;46.70
1351;DHT22;669;50.206;9.998;2023-04-24T10:27:50;11.90;46.80
1351;DHT22;669;50.206;9.998;2023-04-24T10:30:20;12.00;47.50
1351;DHT22;669;50.206;9.998;2023-04-24T10:32:48;12.00;45.60
1351;DHT22;669;50.206;9.998;2023-04-24T10:35:17;11.90;45.00
1351;DHT22;669;50.206;9.998;2023-04-24T10:37:50;11.80;45.70
1351;DHT22;669;50.206;9.998;2023-04-24T10:40:25;11.70;46.80
1351;DHT22;669;50.206;9.998;2023-04-24T10:42:53;11.60;48.40
1351;DHT22;669;50.206;9.998;2023-04-24T10:45:24;11.60;48.20
1351;DHT22;669;50.206;9.998;2023-04-24T10:47:54;11.60;47.70
1351;DHT22;669;50.206;9.998;2023-04-24T10:50:25;11.60;47.40
1351;DHT22;669;50.206;9.998;2023-04-24T10:52:55;11.50;48.60
1351;DHT22;669;50.206;9.998;2023-04-24T10:55:44;11.50;47.00
1351;DHT22;669;50.206;9.998;2023-04-24T10:58:12;11.40;47.60
1351;DHT22;669;50.206;9.998;2023-04-24T11:00:41;11.40;47.50
1351;DHT22;669;50.206;9.998;2023-04-24T11:03:25;11.40;47.90
1351;DHT22;669;50.206;9.998;2023-04-24T11:05:57;11.40;48.90
1351;DHT22;669;50.206;9.998;2023-04-24T11:08:27;11.30;47.90
1351;DHT22;669;50.206;9.998;2023-04-24T11:11:02;11.30;47.60
1351;DHT22;669;50.206;9.998;2023-04-24T11:14:01;11.40;48.90
1351;DHT22;669;50.206;9.998;2023-04-24T11:16:31;11.50;48.90
1351;DHT22;669;50.206;9.998;2023-04-24T11:19:02;11.70;48.60
1351;DHT22;669;50.206;9.998;2023-04-24T11:21:31;11.90;47.00
1351;DHT22;669;50.206;9.998;2023-04-24T11:24:29;12.20;46.10
1351;DHT22;669;50.206;9.998;2023-04-24T11:27:03;12.70;44.30
1351;DHT22;669;50.206;9.998;2023-04-24T11:29:40;12.90;43.90
1351;DHT22;669;50.206;9.998;2023-04-24T11:32:19;12.90;43.50
1351;DHT22;669;50.206;9.998;2023-04-24T11:34:52;13.00;45.00
1351;DHT22;669;50.206;9.998;2023-04-24T11:37:21;13.20;43.80
1351;DHT22;669;50.206;9.998;2023-04-24T11:39:51;13.60;47.70
1351;DHT22;669;50.206;9.998;2023-04-24T11:42:21;14.00;43.40
1351;DHT22;669;50.206;9.998;2023-04-24T11:44:51;14.30;41.50
1351;DHT22;669;50.206;9.998;2023-04-24T11:47:19;14.60;41.20
1351;DHT22;669;50.206;9.998;2023-04-24T11:49:50;14.80;38.80
1351;DHT22;669;50.206;9.998;2023-04-24T11:52:18;14.60;39.00
1351;DHT22;669;50.206;9.998;2023-04-24T11:54:48;14.20;39.20
1351;DHT22;669;50.206;9.998;2023-04-24T11:57:20;13.70;39.20
1351;DHT22;669;50.206;9.998;2023-04-24T11:59:49;13.30;40.90
1351;DHT22;669;50.206;9.998;2023-04-24T12:02:21;13.00;41.50
1351;DHT22;669;50.206;9.998;2023-04-24T12:04:49;12.80;44.00
1351;DHT22;669;50.206;9.998;2023-04-24T12:07:18;12.60;46.00
1351;DHT22;669;50.206;9.998;2023-04-24T12:09:47;12.50;49.20
1351;DHT22;669;50.206;9.998;2023-04-24T12:12:18;12.40;48.40
1351;DHT22;669;50.206;9.998;2023-04-24T12:14:53;12.20;48.90
1351;DHT22;669;50.206;9.998;2023-04-24T12:17:24;12.20;49.10
1351;DHT22;669;50.206;9.998;2023-04-24T12:19:58;12.20;47.60
1351;DHT22;669;50.206;9.998;2023-04-24T12:22:26;12.00;49.30
1351;DHT22;669;50.206;9.998;2023-04-24T12:24:59;12.20;50.80
1351;DHT22;669;50.206;9.998;2023-04-24T12:27:30;12.50;48.50
1351;DHT22;669;50.206;9.998;2023-04-24T12:30:05;12.50;48.00
1351;DHT22;669;50.206;9.998;2023-04-24T12:32:33;12.50;49.30
1351;DHT22;669;50.206;9.998;2023-04-24T12:35:04;12.60;49.10
1351;DHT22;669;50.206;9.998;2023-04-24T12:37:33;12.50;47.30
1351;DHT22;669;50.206;9.998;2023-04-24T12:40:05;12.60;49.50
1351;DHT22;669;50.206;9.998;2023-04-24T12:42:34;12.70;48.10
1351;DHT22;669;50.206;9.998;2023-04-24T12:45:05;12.70;48.10
1351;DHT22;669;50.206;9.998;2023-04-24T12:47:35;12.60;49.60
1351;DHT22;669;50.206;9.998;2023-04-24T12:50:03;12.60;48.90
1351;DHT22;669;50.206;9.998;2023-04-24T12:52:32;12.50;49.30
1351;DHT22;669;50.206;9.998;2023-04-24T12:55:01;12.50;47.90
1351;DHT22;669;50.206;9.998;2023-04-24T12:57:30;12.50;47.90
1351;DHT22;669;50.206;9.998;2023-04-24T12:59:58;12.60;48.10
1351;DHT22;669;50.206;9.998;2023-04-24T13:02:29;12.80;48.70
1351;DHT22;669;50.206;9.998;2023-04-24T13:04:58;12.80;47.60
1351;DHT22;669;50.206;9.998;2023-04-24T13:07:27;12.80;48.10
1351;DHT22;669;50.206;9.998;2023-04-24T13:09:55;12.70;47.40
1351;DHT22;669;50.206;9.998;2023-04-24T13:12:24;12.70;48.10
1351;DHT22;669;50.206;9.998;2023-04-24T13:14:53;12.60;47.30
1351;DHT22;669;50.206;9.998;2023-04-24T13:17:21;12.50;46.50
1351;DHT22;669;50.206;9.998;2023-04-24T13:19:53;12.40;48.20
1351;DHT22;669;50.206;9.998;2023-04-24T13:22:21;12.50;48.70
1351;DHT22;669;50.206;9.998;2023-04-24T13:24:49;12.80;48.20
1351;DHT22;669;50.206;9.998;2023-04-24T13:27:17;12.90;48.10
1351;DHT22;669;50.206;9.998;2023-04-24T13:29:45;13.00;46.20
1351;DHT22;669;50.206;9.998;2023-04-24T13:32:13;12.90;46.30
1351;DHT22;669;50.206;9.998;2023-04-24T13:34:42;12.90;46.80
1351;DHT22;669;50.206;9.998;2023-04-24T13:37:11;12.90;46.60
1351;DHT22;669;50.206;9.998;2023-04-24T13:39:40;12.90;46.80
1351;DHT22;669;50.206;9.998;2023-04-24T13:42:08;12.80;45.70
1351;DHT22;669;50.206;9.998;2023-04-24T13:44:36;12.70;46.10
1351;DHT22;669;50.206;9.998;2023-04-24T13:47:04;12.70;46.50
1351;DHT22;669;50.206;9.998;2023-04-24T13:49:32;12.70;46.20
1351;DHT22;669;50.206;9.998;2023-04-24T13:52:00;12.70;46.90
1351;DHT22;669;50.206;9.998;2023-04-24T13:54:29;12.60;47.30
1351;DHT22;669;50.206;9.998;2023-04-24T13:56:57;12.40;52.00
1351;DHT22;669;50.206;9.998;2023-04-24T13:59:25;12.10;60.20
1351;DHT22;669;50.206;9.998;2023-04-24T14:01:53;11.50;63.30
1351;DHT22;669;50.206;9.998;2023-04-24T14:04:21;11.20;68.20
1351;DHT22;669;50.206;9.998;2023-04-24T14:06:50;11.00;74.20
1351;DHT22;669;50.206;9.998;2023-04-24T14:09:17;11.20;90.30
1351;DHT22;669;50.206;9.998;2023-04-24T14:11:47;11.60;90.30
1351;DHT22;669;50.206;9.998;2023-04-24T14:14:14;12.20;88.40
1351;DHT22;669;50.206;9.998;2023-04-24T14:16:42;12.70;88.10
1351;DHT22;669;50.206;9.998;2023-04-24T14:19:10;12.80;77.50
1351;DHT22;669;50.206;9.998;2023-04-24T14:21:38;12.50;75.60
1351;DHT22;669;50.206;9.998;2023-04-24T14:24:07;12.50;76.40
1351;DHT22;669;50.206;9.998;2023-04-24T14:26:35;12.50;72.00
1351;DHT22;669;50.206;9.998;2023-04-24T14:29:05;12.50;73.50
1351;DHT22;669;50.206;9.998;2023-04-24T14:31:41;12.60;73.00
1351;DHT22;669;50.206;9.998;2023-04-24T14:34:09;12.40;72.30
1351;DHT22;669;50.206;9.998;2023-04-24T14:36:37;12.20;72.70
1351;DHT22;669;50.206;9.998;2023-04-24T14:39:06;11.80;72.20
1351;DHT22;669;50.206;9.998;2023-04-24T14:41:34;11.30;76.50
1351;DHT22;669;50.206;9.998;2023-04-24T14:44:05;10.80;79.40
1351;DHT22;669;50.206;9.998;2023-04-24T14:46:33;10.40;83.90
1351;DHT22;669;50.206;9.998;2023-04-24T14:49:00;10.20;88.90
1351;DHT22;669;50.206;9.998;2023-04-24T14:51:29;10.00;90.20
1351;DHT22;669;50.206;9.998;2023-04-24T14:53:58;9.80;90.80
1351;DHT22;669;50.206;9.998;2023-04-24T14:56:26;9.70;90.60
1351;DHT22;669;50.206;9.998;2023-04-24T14:58:54;9.60;91.50
1351;DHT22;669;50.206;9.998;2023-04-24T15:01:23;9.50;91.40
1351;DHT22;669;50.206;9.998;2023-04-24T15:03:52;9.40;92.30
1351;DHT22;669;50.206;9.998;2023-04-24T15:06:20;9.40;92.60
1351;DHT22;669;50.206;9.998;2023-04-24T15:08:48;9.40;92.50
1351;DHT22;669;50.206;9.998;2023-04-24T15:11:16;9.40;91.90
1351;DHT22;669;50.206;9.998;2023-04-24T15:13:44;9.50;91.20
1351;DHT22;669;50.206;9.998;2023-04-24T15:16:13;9.60;92.10
1351;DHT22;669;50.206;9.998;2023-04-24T15:18:42;9.80;92.40
1351;DHT22;669;50.206;9.998;2023-04-24T15:21:11;10.10;91.70
1351;DHT22;669;50.206;9.998;2023-04-24T15:23:39;10.30;89.70
1351;DHT22;669;50.206;9.998;2023-04-24T15:26:07;10.40;87.80
1351;DHT22;669;50.206;9.998;2023-04-24T15:28:35;10.50;86.00
1351;DHT22;669;50.206;9.998;2023-04-24T15:31:03;10.40;83.20
1351;DHT22;669;50.206;9.998;2023-04-24T15:33:31;10.50;84.60
1351;DHT22;669;50.206;9.998;2023-04-24T15:36:00;10.40;86.20
1351;DHT22;669;50.206;9.998;2023-04-24T15:38:28;10.40;84.10
1351;DHT22;669;50.206;9.998;2023-04-24T15:40:56;10.30;82.70
1351;DHT22;669;50.206;9.998;2023-04-24T15:43:24;10.30;85.80
1351;DHT22;669;50.206;9.998;2023-04-24T15:45:51;10.40;87.60
1351;DHT22;669;50.206;9.998;2023-04-24T15:48:19;10.40;89.60
1351;DHT22;669;50.206;9.998;2023-04-24T15:50:47;10.50;85.20
1351;DHT22;669;50.206;9.998;2023-04-24T15:53:17;10.50;85.20
1351;DHT22;669;50.206;9.998;2023-04-24T15:55:48;10.60;85.50
1351;DHT22;669;50.206;9.998;2023-04-24T15:58:16;10.80;85.20
1351;DHT22;669;50.206;9.998;2023-04-24T16:00:45;10.80;80.60
1351;DHT22;669;50.206;9.998;2023-04-24T16:03:13;10.80;78.20
1351;DHT22;669;50.206;9.998;2023-04-24T16:05:41;10.90;80.60
1351;DHT22;669;50.206;9.998;2023-04-24T16:08:09;10.80;79.50
1351;DHT22;669;50.206;9.998;2023-04-24T16:10:38;10.80;79.40
1351;DHT22;669;50.206;9.998;2023-04-24T16:13:06;10.80;80.80
1351;DHT22;669;50.206;9.998;2023-04-24T16:15:34;10.80;80.50
1351;DHT22;669;50.206;9.998;2023-04-24T16:18:03;10.70;80.30
1351;DHT22;669;50.206;9.998;2023-04-24T16:20:31;10.70;77.90
1351;DHT22;669;50.206;9.998;2023-04-24T16:22:58;10.70;79.80
1351;DHT22;669;50.206;9.998;2023-04-24T16:25:26;10.60;77.90
1351;DHT22;669;50.206;9.998;2023-04-24T16:27:56;10.60;79.30
1351;DHT22;669;50.206;9.998;2023-04-24T16:30:24;10.60;80.00
1351;DHT22;669;50.206;9.998;2023-04-24T16:32:52;10.60;80.20